• Join FlightAware (Why Join?)
  • Login
  • US Flag 
12:37PM EST


 

Airport Tracker/Info


-or-


 

Live Flight TrackerFlight Track Log ✈ CTL17 ✈ 25-Jun-2013 ✈ KYIP - KBKL

Flight Track Log - Related Links

Times and Time Zones

All times are in EDT time to prevent confusion due to time zone crossing. See the CTL17 flight status page for this flight to view local times or setup timezone preferences in your user account.

Time Position Orientation Groundspeed Altitude Reporting Facility
EDT Latitude Longitude Course Direction KTS MPH feet Rate Location/Type
05:31PM 42.2044 -83.5742 226° Southwest 121 139 1,700  Level Cleveland Center
05:32PM 42.1786 -83.6067 223° Southwest 134 154 2,500 660 Climbing Cleveland Center
05:33PM 42.1408 -83.6133 187° South 151 174 3,100 300 Climbing Cleveland Center
05:34PM 42.0975 -83.6028 170° South 158 182 3,200  Climbing Cleveland Center
05:35PM 42.0583 -83.5842 161° South 176 203 3,100 -60 Descending Cleveland Center
05:36PM 42.0369 -83.5189 114° Southeast 180 207 3,100  Level Cleveland Center
05:37PM 42.0197 -83.4564 110° East 174 200 3,100  Level Cleveland Center
05:38PM 42.0025 -83.3942 110° East 179 206 3,100  Level Cleveland Center
05:39PM 41.9853 -83.3347 111° Southeast 176 203 3,100 360 Level Cleveland Center
05:40PM 41.9617 -83.2808 120° Southeast 156 180 3,900 720 Climbing Cleveland Center
05:41PM 41.9442 -83.2269 114° Southeast 153 176 4,600 540 Climbing Cleveland Center
05:42PM 41.9286 -83.1706 110° East 160 184 5,100 240 Climbing Cleveland Center
05:43PM 41.9114 -83.1028 109° East 190 219 5,100  Level Cleveland Center
05:44PM 41.8983 -83.0381 105° East 194 223 5,100  Level Cleveland Center
05:45PM 41.8789 -82.9675 110° East 199 229 5,100  Level Cleveland Center
05:46PM 41.8611 -82.9139 114° Southeast 197 227 5,100  Level Cleveland Center
05:47PM 41.8439 -82.8464 109° East 194 223 5,100  Level Cleveland Center
05:48PM 41.8144 -82.7450 111° Southeast 190 219 5,100  Level Cleveland Center
05:49PM 41.8089 -82.7114 102° East 189 217 5,100  Level Cleveland Center
05:50PM 41.7936 -82.6358 105° East 192 221 5,100  Level Cleveland Center
05:51PM 41.7781 -82.5628 106° East 196 226 5,100  Level Cleveland Center
05:52PM 41.7567 -82.4786 109° East 199 229 5,100  Level Cleveland Center
05:53PM 41.7411 -82.4142 108° East 198 228 5,100  Level Cleveland Center
05:54PM 41.7256 -82.3414 106° East 199 229 5,100 -120 Level Cleveland Center
05:55PM 41.7142 -82.2689 102° East 202 232 4,900 -480 Descending Cleveland Center
05:56PM 41.6944 -82.1822 107° East 213 245 4,100 -420 Descending Cleveland Center
05:57PM 41.6872 -82.1069 97° East 197 227 4,100 -240 Level Cleveland Center
05:59PM 41.6831 -81.9372 92° East 212 244 3,400 -360 Descending Cleveland Center
06:00PM 41.6714 -81.8647 102° East 205 236 3,000 -600 Descending Cleveland Center
06:01PM 41.6556 -81.7892 106° East 206 237 2,200 -600 Descending Cleveland Center
06:02PM 41.6269 -81.7386 127° Southeast 176 203 1,900 -360 Descending Cleveland Center
06:03PM 41.5836 -81.6936 142° Southeast 170 196 1,500 -240 Descending Cleveland Center
06:04PM 41.5608 -81.6681 140° Southeast 156 180 1,500  Level Cleveland Center